.
WxDataArchive / Data Records for 2009-12-19
2009-12-18 December 2009 2009-12-20

Data Records for Saturday, 19 December 2009

Time	Temp	Chill	HIndex	Humid	Dewpt	 Wind 	HiWind	WindDir	Rain 	Barom 
-----	----	-----	------	-----	-----	------	------	-------	-----	----- 
00:00	31.5	31.5	31.5	79	25.8	1	4	68	0.00	29.862 
00:05	31.6	31.6	31.6	78	25.5	1	4	112	0.00	29.862 
00:10	31.6	31.6	31.6	78	25.5	1	4	112	0.00	29.862 
00:15	31.8	31.8	31.8	78	25.7	1	4	112	0.00	29.858 
00:20	31.8	31.8	31.8	78	25.7	0	2	112	0.00	29.858 
00:25	31.8	31.8	31.8	78	25.7	1	3	112	0.00	29.858 
00:30	31.8	31.8	31.8	78	25.7	1	3	112	0.00	29.857 
00:35	31.9	31.9	31.9	78	25.8	0	3	112	0.00	29.857 
00:40	31.9	31.9	31.9	78	25.8	1	3	112	0.00	29.857 
00:45	31.9	31.9	31.9	78	25.8	0	1	112	0.00	29.853 
00:50	31.9	31.9	31.9	78	25.8	0	1	112	0.00	29.853 
00:55	31.9	31.9	31.9	79	26.1	0	2	112	0.00	29.853 
01:00	31.9	31.9	31.9	79	26.1	0	0	---	0.00	29.850 
01:05	31.9	31.9	31.9	79	26.1	0	1	112	0.00	29.850 
01:10	32.1	32.1	32.1	79	26.3	0	2	112	0.00	29.850 
01:15	32.1	32.1	32.1	80	26.6	0	1	112	0.00	29.848 
01:20	32.1	32.1	32.1	80	26.6	0	2	112	0.00	29.848 
01:25	32.1	32.1	32.1	81	26.9	0	2	112	0.00	29.848 
01:30	32.1	32.1	32.1	81	26.9	0	2	112	0.00	29.847 
01:35	32.1	32.1	32.1	83	27.5	0	1	112	0.00	29.847 
01:40	31.9	31.9	31.9	84	27.6	0	0	---	0.00	29.847 
01:45	31.9	31.9	31.9	84	27.6	0	0	---	0.00	29.844 
01:50	31.9	31.9	31.9	85	27.9	0	1	112	0.00	29.844 
01:55	31.8	31.8	31.8	86	28.1	0	3	112	0.00	29.844 
02:00	31.8	31.8	31.8	87	28.4	0	2	112	0.00	29.841 
02:05	31.8	31.8	31.8	88	28.7	0	2	112	0.00	29.841 
02:10	31.8	31.8	31.8	89	28.9	0	3	112	0.00	29.841 
02:15	31.8	31.8	31.8	90	29.2	0	3	112	0.00	29.836 
02:20	31.6	31.6	31.6	90	29.0	0	2	112	0.00	29.836 
02:25	31.6	31.6	31.6	90	29.0	0	2	112	0.00	29.836 
02:30	31.6	31.6	31.6	91	29.3	0	2	112	0.00	29.838 
02:35	31.6	31.6	31.6	91	29.3	0	2	112	0.00	29.838 
02:40	31.6	31.6	31.6	92	29.5	0	3	112	0.00	29.838 
02:45	31.6	31.6	31.6	92	29.5	0	3	338	0.00	29.836 
02:50	31.6	31.6	31.6	92	29.5	1	3	90	0.00	29.836 
02:55	31.6	31.6	31.6	92	29.5	0	2	45	0.00	29.836 
03:00	31.6	31.6	31.6	92	29.5	0	3	68	0.00	29.831 
03:05	31.6	31.6	31.6	92	29.5	1	3	112	0.00	29.831 
03:10	31.6	31.6	31.6	92	29.5	0	2	112	0.00	29.831 
03:15	31.6	31.6	31.6	93	29.8	1	2	112	0.00	29.831 
03:20	31.6	31.6	31.6	93	29.8	1	3	90	0.00	29.831 
03:25	31.6	31.6	31.6	93	29.8	1	2	112	0.00	29.831 
03:30	31.6	31.6	31.6	93	29.8	0	2	90	0.00	29.828 
03:35	31.6	31.6	31.6	93	29.8	0	2	0	0.00	29.828 
03:40	31.6	31.6	31.6	93	29.8	0	2	90	0.00	29.828 
03:45	31.6	31.6	31.6	93	29.8	0	2	90	0.00	29.822 
03:50	31.6	31.6	31.6	93	29.8	0	1	90	0.00	29.822 
03:55	31.6	31.6	31.6	93	29.8	0	1	90	0.00	29.822 
04:00	31.6	31.6	31.6	93	29.8	0	3	90	0.00	29.818 
04:05	31.6	31.6	31.6	93	29.8	0	2	90	0.00	29.818 
04:10	31.6	31.6	31.6	93	29.8	0	1	90	0.00	29.818 
04:15	31.6	31.6	31.6	94	30.1	0	1	90	0.00	29.817 
04:20	31.6	31.6	31.6	94	30.1	0	2	90	0.00	29.817 
04:25	31.6	31.6	31.6	94	30.1	0	1	90	0.00	29.817 
04:30	31.6	31.6	31.6	94	30.1	0	1	90	0.00	29.815 
04:35	31.6	31.6	31.6	94	30.1	0	1	90	0.00	29.815 
04:40	31.6	31.6	31.6	94	30.1	0	1	90	0.00	29.815 
04:45	31.6	31.6	31.6	94	30.1	0	0	---	0.00	29.812 
04:50	31.6	31.6	31.6	94	30.1	0	1	90	0.00	29.812 
04:55	31.6	31.6	31.6	94	30.1	0	1	90	0.00	29.812 
05:00	31.6	31.6	31.6	94	30.1	0	1	90	0.00	29.807 
05:05	31.8	31.8	31.8	94	30.3	0	1	90	0.00	29.807 
05:10	31.8	31.8	31.8	94	30.3	0	1	90	0.00	29.807 
05:15	31.8	31.8	31.8	94	30.3	0	1	90	0.00	29.806 
05:20	31.8	31.8	31.8	94	30.3	0	1	90	0.00	29.806 
05:25	31.8	31.8	31.8	94	30.3	0	1	90	0.00	29.806 
05:30	31.9	31.9	31.9	94	30.4	0	1	90	0.00	29.804 
05:35	31.9	31.9	31.9	94	30.4	0	2	90	0.00	29.804 
05:40	31.9	31.9	31.9	94	30.4	0	1	90	0.00	29.804 
05:45	32.1	32.1	32.1	94	30.6	0	2	90	0.00	29.805 
05:50	32.1	32.1	32.1	94	30.6	0	1	90	0.00	29.805 
05:55	32.2	32.2	32.2	94	30.7	1	3	90	0.00	29.805 
06:00	32.2	32.2	32.2	94	30.7	0	1	90	0.00	29.804 
06:05	32.2	32.2	32.2	94	30.7	0	1	90	0.00	29.804 
06:10	32.2	32.2	32.2	94	30.7	0	1	90	0.00	29.804 
06:15	32.2	32.2	32.2	95	30.9	0	0	---	0.00	29.809 
06:20	32.2	32.2	32.2	95	30.9	0	0	---	0.00	29.809 
06:25	32.2	32.2	32.2	95	30.9	0	0	---	0.00	29.809 
06:30	32.2	32.2	32.2	95	30.9	0	0	---	0.00	29.811 
06:35	32.4	32.4	32.4	95	31.1	0	0	---	0.00	29.811 
06:40	32.4	32.4	32.4	95	31.1	0	0	---	0.00	29.811 
06:45	32.4	32.4	32.4	95	31.1	0	0	---	0.00	29.810 
06:50	32.4	32.4	32.4	95	31.1	0	0	---	0.00	29.810 
06:55	32.4	32.4	32.4	95	31.1	0	0	---	0.00	29.810 
07:00	32.4	32.4	32.4	95	31.1	0	0	---	0.00	29.814 
07:05	32.4	32.4	32.4	95	31.1	0	1	90	0.00	29.814 
07:10	32.4	32.4	32.4	95	31.1	0	2	90	0.00	29.814 
07:15	32.4	32.4	32.4	95	31.1	0	2	90	0.00	29.817 
07:20	32.4	32.4	32.4	95	31.1	0	2	90	0.00	29.817 
07:25	32.4	32.4	32.4	95	31.1	0	2	90	0.00	29.817 
07:30	32.4	32.4	32.4	95	31.1	0	0	---	0.00	29.818 
07:35	32.2	32.2	32.2	95	30.9	0	0	---	0.00	29.818 
07:40	32.2	32.2	32.2	95	30.9	0	0	---	0.00	29.818 
07:45	32.2	32.2	32.2	95	30.9	0	0	---	0.00	29.820 
07:50	32.2	32.2	32.2	95	30.9	0	0	---	0.00	29.820 
07:55	32.2	32.2	32.2	95	30.9	0	0	---	0.00	29.820 
08:00	32.2	32.2	32.2	95	30.9	0	0	---	0.00	29.824 
08:05	32.1	32.1	32.1	95	30.8	0	0	---	0.00	29.824 
08:10	32.1	32.1	32.1	95	30.8	0	0	---	0.00	29.824 
08:15	32.1	32.1	32.1	95	30.8	0	0	---	0.00	29.827 
08:20	32.1	32.1	32.1	95	30.8	0	0	---	0.00	29.827 
08:25	32.1	32.1	32.1	95	30.8	0	0	---	0.00	29.827 
08:30	31.9	31.9	31.9	95	30.6	0	0	---	0.00	29.832 
08:35	31.9	31.9	31.9	95	30.6	0	0	---	0.00	29.832 
08:40	31.9	31.9	31.9	95	30.6	0	0	---	0.00	29.832 
08:45	31.9	31.9	31.9	95	30.6	0	0	---	0.00	29.835 
08:50	31.9	31.9	31.9	95	30.6	0	0	---	0.00	29.835 
08:55	31.8	31.8	31.8	95	30.5	0	0	---	0.00	29.835 
09:00	31.8	31.8	31.8	95	30.5	0	0	---	0.00	29.839 
09:05	31.8	31.8	31.8	95	30.5	0	0	---	0.00	29.839 
09:10	31.8	31.8	31.8	95	30.5	0	0	---	0.00	29.839 
09:15	31.8	31.8	31.8	95	30.5	0	0	---	0.00	29.847 
09:20	31.8	31.8	31.8	95	30.5	0	0	---	0.00	29.847 
09:25	31.8	31.8	31.8	95	30.5	0	0	---	0.00	29.847 
09:30	31.8	31.8	31.8	95	30.5	0	0	---	0.00	29.850 
09:35	31.8	31.8	31.8	95	30.5	0	0	---	0.00	29.850 
09:40	31.8	31.8	31.8	95	30.5	0	0	---	0.00	29.850 
09:45	31.9	31.9	31.9	95	30.6	0	0	---	0.00	29.850 
09:50	31.8	31.8	31.8	95	30.5	0	0	---	0.00	29.850 
09:55	31.6	31.6	31.6	94	30.1	0	0	---	0.00	29.850 
10:00	31.6	31.6	31.6	94	30.1	0	0	---	0.00	29.854 
10:05	31.6	31.6	31.6	94	30.1	0	0	---	0.00	29.854 
10:10	31.6	31.6	31.6	94	30.1	0	0	---	0.00	29.854 
10:15	31.5	31.5	31.5	94	30.0	0	3	68	0.00	29.866 
10:20	31.3	31.3	31.3	94	29.8	0	3	68	0.00	29.866 
10:25	31.3	31.3	31.3	94	29.8	0	2	22	0.00	29.866 
10:30	31.2	31.2	31.2	94	29.7	0	3	45	0.00	29.868 
10:35	31.2	31.2	31.2	94	29.7	0	3	45	0.00	29.868 
10:40	31.0	31.0	31.0	94	29.5	0	1	45	0.00	29.868 
10:45	31.0	31.0	31.0	94	29.5	0	0	---	0.00	29.869 
10:50	31.0	31.0	31.0	94	29.5	0	0	---	0.00	29.869 
10:55	30.9	30.9	30.9	93	29.1	0	5	135	0.00	29.869 
11:00	30.9	30.9	30.9	93	29.1	0	3	112	0.00	29.873 
11:05	31.0	31.0	31.0	93	29.2	1	4	112	0.00	29.873 
11:10	31.0	31.0	31.0	93	29.2	1	3	90	0.00	29.873 
11:15	30.9	30.9	30.9	93	29.1	1	4	112	0.00	29.871 
11:20	31.0	31.0	31.0	93	29.2	0	2	112	0.00	29.871 
11:25	31.0	31.0	31.0	93	29.2	1	4	112	0.00	29.871 
11:30	30.9	30.9	30.9	93	29.1	2	5	90	0.00	29.871 
11:35	30.9	30.9	30.9	93	29.1	0	4	68	0.00	29.871 
11:40	31.0	31.0	31.0	93	29.2	0	1	68	0.00	29.871 
11:45	31.2	31.2	31.2	93	29.4	0	3	90	0.00	29.868 
11:50	31.3	31.3	31.3	93	29.5	0	3	90	0.00	29.868 
11:55	31.2	31.2	31.2	92	29.2	1	3	90	0.00	29.868 
12:00	31.2	31.2	31.2	92	29.2	1	3	90	0.00	29.868 
12:05	31.2	31.2	31.2	92	29.2	0	2	135	0.00	29.868 
12:10	31.0	31.0	31.0	92	29.0	1	5	90	0.00	29.868 
12:15	31.2	31.2	31.2	92	29.2	0	1	90	0.00	29.867 
12:20	31.3	31.3	31.3	92	29.3	0	2	90	0.00	29.867 
12:25	31.5	31.5	31.5	92	29.4	0	2	90	0.00	29.867 
12:30	31.5	31.5	31.5	92	29.4	1	3	22	0.00	29.864 
12:35	31.5	31.5	31.5	92	29.4	0	2	90	0.00	29.864 
12:40	31.5	31.5	31.5	92	29.4	1	3	22	0.00	29.864 
12:45	31.5	31.5	31.5	92	29.4	0	2	22	0.00	29.864 
12:50	31.6	31.6	31.6	92	29.5	0	2	22	0.00	29.864 
12:55	31.6	31.6	31.6	92	29.5	0	2	0	0.01	29.864 
13:00	31.8	31.8	31.8	92	29.7	0	2	0	0.00	29.863 
13:05	31.9	31.9	31.9	92	29.8	0	2	0	0.00	29.863 
13:10	31.9	31.9	31.9	92	29.8	0	2	45	0.00	29.863 
13:15	31.8	31.8	31.8	92	29.7	0	3	135	0.01	29.859 
13:20	31.9	31.9	31.9	92	29.8	0	2	135	0.00	29.859 
13:25	31.9	31.9	31.9	92	29.8	0	2	90	0.01	29.859 
13:30	31.9	31.9	31.9	92	29.8	0	3	90	0.00	29.861 
13:35	31.8	31.8	31.8	91	29.5	0	3	90	0.00	29.861 
13:40	31.8	31.8	31.8	91	29.5	1	3	90	0.00	29.861 
13:45	31.8	31.8	31.8	91	29.5	1	3	135	0.01	29.862 
13:50	31.8	31.8	31.8	91	29.5	1	3	68	0.00	29.862 
13:55	31.6	31.6	31.6	91	29.3	0	3	45	0.00	29.862 
14:00	31.8	31.8	31.8	91	29.5	0	3	22	0.01	29.859 
14:05	31.8	31.8	31.8	91	29.5	0	3	90	0.00	29.859 
14:10	31.8	31.8	31.8	91	29.5	0	1	90	0.00	29.859 
14:15	31.6	31.6	31.6	91	29.3	1	5	112	0.00	29.863 
14:20	31.5	31.5	31.5	91	29.2	1	3	45	0.00	29.863 
14:25	31.3	31.3	31.3	91	29.0	0	2	112	0.01	29.863 
14:30	31.3	31.3	31.3	91	29.0	1	3	68	0.00	29.866 
14:35	31.3	31.3	31.3	91	29.0	0	2	68	0.00	29.866 
14:40	31.5	31.5	31.5	91	29.2	1	2	45	0.00	29.866 
14:45	31.3	31.3	31.3	91	29.0	1	3	90	0.00	29.867 
14:50	31.5	31.5	31.5	91	29.2	0	1	68	0.01	29.867 
14:55	31.6	31.6	31.6	91	29.3	0	3	68	0.00	29.867 
15:00	31.8	31.8	31.8	91	29.5	0	2	90	0.00	29.866 
15:05	31.8	31.8	31.8	91	29.5	1	4	90	0.00	29.866 
15:10	31.6	31.6	31.6	91	29.3	1	4	90	0.00	29.866 
15:15	31.6	31.6	31.6	90	29.0	1	4	68	0.01	29.872 
15:20	31.6	31.6	31.6	90	29.0	1	3	112	0.00	29.872 
15:25	31.6	31.6	31.6	90	29.0	0	4	112	0.00	29.872 
15:30	31.6	31.6	31.6	90	29.0	0	2	68	0.00	29.878 
15:35	31.6	31.6	31.6	90	29.0	1	3	90	0.00	29.878 
15:40	31.5	31.5	31.5	90	28.9	1	3	0	0.00	29.878 
15:45	31.5	31.5	31.5	89	28.6	1	3	68	0.01	29.880 
15:50	31.5	31.5	31.5	89	28.6	0	2	68	0.00	29.880 
15:55	31.5	31.5	31.5	89	28.6	0	3	68	0.00	29.880 
16:00	31.6	31.6	31.6	89	28.7	0	3	68	0.00	29.883 
16:05	31.5	31.5	31.5	89	28.6	0	2	68	0.00	29.883 
16:10	31.3	31.3	31.3	89	28.4	1	6	45	0.00	29.883 
16:15	31.0	31.0	31.0	88	27.9	1	2	45	0.00	29.891 
16:20	31.0	31.0	31.0	88	27.9	1	4	68	0.00	29.891 
16:25	30.9	30.9	30.9	88	27.8	0	2	68	0.00	29.891 
16:30	30.9	30.9	30.9	88	27.8	0	2	68	0.00	29.897 
16:35	30.9	30.9	30.9	88	27.8	0	3	68	0.00	29.897 
16:40	30.9	30.9	30.9	89	28.0	1	3	68	0.00	29.897 
16:45	30.6	30.6	30.6	88	27.5	0	3	158	0.01	29.903 
16:50	30.4	30.4	30.4	88	27.3	0	3	135	0.00	29.903 
16:55	30.3	30.3	30.3	88	27.2	0	2	45	0.00	29.903 
17:00	30.3	30.3	30.3	88	27.2	0	0	---	0.00	29.913 
17:05	30.3	30.3	30.3	89	27.5	0	1	45	0.00	29.913 
17:10	30.1	30.1	30.1	89	27.3	0	2	45	0.00	29.913 
17:15	30.1	30.1	30.1	89	27.3	0	2	45	0.00	29.915 
17:20	30.0	30.0	30.0	89	27.2	0	3	90	0.00	29.915 
17:25	29.8	29.8	29.8	90	27.2	0	1	90	0.00	29.915 
17:30	29.7	29.7	29.7	90	27.1	0	0	---	0.00	29.917 
17:35	29.5	29.5	29.5	90	26.9	0	0	---	0.00	29.917 
17:40	29.4	29.4	29.4	90	26.8	0	2	90	0.00	29.917 
17:45	29.4	29.4	29.4	90	26.8	0	3	90	0.00	29.922 
17:50	29.3	29.3	29.3	90	26.7	0	2	90	0.00	29.922 
17:55	29.0	29.0	29.0	90	26.4	1	4	45	0.00	29.922 
18:00	28.8	28.8	28.8	90	26.2	0	2	45	0.00	29.929 
18:05	28.8	28.8	28.8	90	26.2	0	1	45	0.00	29.929 
18:10	28.7	28.7	28.7	90	26.1	0	3	45	0.00	29.929 
18:15	28.5	28.5	28.5	90	25.9	0	3	45	0.00	29.932 
18:20	28.5	28.5	28.5	90	25.9	0	1	45	0.00	29.932 
18:25	28.4	28.4	28.4	90	25.8	0	2	45	0.00	29.932 
18:30	28.2	28.2	28.2	90	25.7	0	2	45	0.00	29.934 
18:35	28.1	28.1	28.1	90	25.6	0	1	45	0.00	29.934 
18:40	27.9	27.9	27.9	90	25.4	0	0	---	0.00	29.934 
18:45	27.8	27.8	27.8	90	25.3	0	0	---	0.00	29.940 
18:50	27.6	27.6	27.6	90	25.1	0	0	---	0.00	29.940 
18:55	27.6	27.6	27.6	90	25.1	0	0	---	0.00	29.940 
19:00	27.6	27.6	27.6	90	25.1	0	0	---	0.00	29.944 
19:05	27.5	27.5	27.5	90	25.0	0	0	---	0.00	29.944 
19:10	27.5	27.5	27.5	91	25.2	0	0	---	0.00	29.944 
19:15	27.6	27.6	27.6	91	25.3	0	0	---	0.00	29.948 
19:20	27.6	27.6	27.6	91	25.3	0	0	---	0.00	29.948 
19:25	27.8	27.8	27.8	91	25.5	0	0	---	0.00	29.948 
19:30	27.8	27.8	27.8	91	25.5	0	0	---	0.00	29.948 
19:35	27.9	27.9	27.9	91	25.6	0	1	45	0.00	29.948 
19:40	27.9	27.9	27.9	91	25.6	0	0	---	0.00	29.948 
19:45	27.9	27.9	27.9	91	25.6	0	0	---	0.00	29.951 
19:50	27.9	27.9	27.9	91	25.6	0	0	---	0.00	29.951 
19:55	27.9	27.9	27.9	91	25.6	0	0	---	0.00	29.951 
20:00	27.9	27.9	27.9	91	25.6	0	0	---	0.00	29.952 
20:05	27.8	27.8	27.8	91	25.5	0	0	---	0.00	29.952 
20:10	27.6	27.6	27.6	91	25.3	0	0	---	0.00	29.952 
20:15	27.5	27.5	27.5	91	25.2	0	0	---	0.00	29.957 
20:20	27.3	27.3	27.3	91	25.0	0	0	---	0.00	29.957 
20:25	27.2	27.2	27.2	91	24.9	0	0	---	0.00	29.957 
20:30	27.2	27.2	27.2	91	24.9	0	0	---	0.00	29.959 
20:35	27.2	27.2	27.2	91	24.9	0	0	---	0.00	29.959 
20:40	27.2	27.2	27.2	91	24.9	0	0	---	0.00	29.959 
20:45	27.3	27.3	27.3	92	25.3	0	0	---	0.00	29.964 
20:50	27.5	27.5	27.5	92	25.5	0	0	---	0.00	29.964 
20:55	27.6	27.6	27.6	92	25.6	0	0	---	0.00	29.964 
21:00	27.6	27.6	27.6	92	25.6	0	0	---	0.00	29.964 
21:05	27.6	27.6	27.6	92	25.6	0	0	---	0.00	29.964 
21:10	27.8	27.8	27.8	92	25.8	0	0	---	0.00	29.964 
21:15	27.9	27.9	27.9	92	25.9	0	0	---	0.00	29.966 
21:20	27.9	27.9	27.9	92	25.9	0	0	---	0.00	29.966 
21:25	28.1	28.1	28.1	92	26.1	0	0	---	0.00	29.966 
21:30	28.1	28.1	28.1	92	26.1	0	0	---	0.00	29.968 
21:35	28.2	28.2	28.2	92	26.2	0	0	---	0.00	29.968 
21:40	28.2	28.2	28.2	92	26.2	0	0	---	0.00	29.968 
21:45	28.2	28.2	28.2	92	26.2	0	0	---	0.00	29.971 
21:50	28.4	28.4	28.4	92	26.4	0	0	---	0.00	29.971 
21:55	28.4	28.4	28.4	92	26.4	0	0	---	0.00	29.971 
22:00	28.4	28.4	28.4	92	26.4	0	0	---	0.00	29.978 
22:05	28.4	28.4	28.4	93	26.6	0	1	45	0.00	29.978 
22:10	28.4	28.4	28.4	93	26.6	0	0	---	0.00	29.978 
22:15	28.4	28.4	28.4	93	26.6	0	0	---	0.00	29.980 
22:20	28.4	28.4	28.4	93	26.6	0	0	---	0.00	29.980 
22:25	28.4	28.4	28.4	93	26.6	0	0	---	0.00	29.980 
22:30	28.2	28.2	28.2	93	26.4	0	0	---	0.00	29.980 
22:35	28.2	28.2	28.2	93	26.4	0	0	---	0.00	29.980 
22:40	28.2	28.2	28.2	93	26.4	0	0	---	0.00	29.980 
22:45	28.2	28.2	28.2	93	26.4	0	0	---	0.00	29.984 
22:50	28.2	28.2	28.2	93	26.4	0	0	---	0.00	29.984 
22:55	28.2	28.2	28.2	93	26.4	0	1	45	0.00	29.984 
23:00	28.2	28.2	28.2	93	26.4	0	0	---	0.00	29.989 
23:05	28.2	28.2	28.2	93	26.4	0	0	---	0.00	29.989 
23:10	28.2	28.2	28.2	93	26.4	0	0	---	0.00	29.989 
23:15	28.1	28.1	28.1	93	26.3	0	0	---	0.00	29.995 
23:20	28.1	28.1	28.1	93	26.3	0	1	45	0.00	29.995 
23:25	28.1	28.1	28.1	93	26.3	0	0	---	0.00	29.995 
23:30	28.1	28.1	28.1	93	26.3	0	0	---	0.00	29.993 
23:35	28.1	28.1	28.1	93	26.3	0	1	45	0.00	29.993 
23:40	27.9	27.9	27.9	93	26.1	0	0	---	0.00	29.993 
23:45	27.9	27.9	27.9	92	25.9	0	0	---	0.00	29.993 
23:50	27.9	27.9	27.9	92	25.9	0	1	45	0.00	29.993 
23:55	27.9	27.9	27.9	92	25.9	0	0	---	0.00	29.993 

CoCoRaHS
IN-AL-39
A2 Web Hosting
Creative Commons License
GoDaddy
search engine by freefind advanced

loaded 2018-11-17 13:00:16 • last modified 2010-11-18 10:43:29
Privacy PolicyDisclaimer
• wx.awcolley.com is powered by PmWiki v.2002016 •
• all content (unless otherwise noted) © 2018 A W Colley